Time;durP1;ratioP1;P1;durP2;ratioP2;P2;SDS_P1;SDS_P2;PMS_P1;PMS_P2;Temp;Humidity;BMP_temperature;BMP_pressure;BME280_temperature;BME280_humidity;BME280_pressure;Samples;Min_cycle;Max_cycle;Signal;HPM_P1;HPM_P2
2023/04/21 00:01:07;;;;;;;25.25;16.50;;;8.10;99.90;;;;;;5074234;28;20049;-21
2023/04/21 00:03:36;;;;;;;31.73;17.67;;;8.00;99.90;;;;;;5073709;28;20048;-21
2023/04/21 00:06:05;;;;;;;26.27;17.13;;;8.00;99.90;;;;;;5073640;28;20048;-21
2023/04/21 00:08:30;;;;;;;27.50;16.23;;;8.10;99.90;;;;;;5073554;28;20052;-21
2023/04/21 00:10:56;;;;;;;25.23;16.45;;;8.10;99.90;;;;;;5073514;28;20040;-21
2023/04/21 00:13:22;;;;;;;27.85;16.85;;;8.10;99.90;;;;;;5074366;28;20036;-21
2023/04/21 00:15:49;;;;;;;22.65;14.15;;;8.10;99.90;;;;;;5073511;28;20490;-21
2023/04/21 00:18:15;;;;;;;28.23;17.60;;;8.10;99.90;;;;;;5074045;28;20055;-21
2023/04/21 00:20:41;;;;;;;27.67;16.73;;;8.10;99.90;;;;;;5056304;28;20447;-21
2023/04/21 00:23:09;;;;;;;29.73;16.80;;;8.10;99.90;;;;;;5039360;28;20044;-21
2023/04/21 00:25:35;;;;;;;23.35;17.55;;;8.10;99.90;;;;;;5055751;28;20499;-21
2023/04/21 00:28:01;;;;;;;28.38;17.23;;;8.10;99.90;;;;;;5073359;28;20131;-21
2023/04/21 00:30:27;;;;;;;30.90;17.20;;;8.10;99.90;;;;;;5073184;28;20128;-21
2023/04/21 00:32:53;;;;;;;25.52;16.75;;;8.00;99.90;;;;;;5073306;28;20045;-21
2023/04/21 00:35:18;;;;;;;28.98;16.13;;;8.00;99.90;;;;;;5073228;28;20549;-21
2023/04/21 00:37:44;;;;;;;29.13;17.85;;;8.00;99.90;;;;;;5073856;28;20132;-21
2023/04/21 00:40:10;;;;;;;30.30;17.77;;;7.90;99.90;;;;;;5073279;28;20482;-21
2023/04/21 00:42:36;;;;;;;26.63;17.15;;;7.80;99.90;;;;;;5073222;28;20044;-21
2023/04/21 00:45:03;;;;;;;26.90;17.83;;;7.80;99.90;;;;;;5072885;28;20114;-21
2023/04/21 00:47:29;;;;;;;27.73;16.67;;;7.70;99.90;;;;;;5073453;28;20053;-21
2023/04/21 00:49:56;;;;;;;33.38;18.13;;;7.70;99.90;;;;;;5055266;28;20036;-21
2023/04/21 00:52:23;;;;;;;23.15;16.20;;;7.60;99.90;;;;;;5073104;28;20044;-21
2023/04/21 00:54:49;;;;;;;27.85;17.17;;;7.60;99.90;;;;;;5073921;28;20048;-21
2023/04/21 00:57:15;;;;;;;33.20;17.25;;;7.60;99.90;;;;;;5073619;28;20055;-21
2023/04/21 00:59:42;;;;;;;25.92;18.75;;;7.60;99.90;;;;;;5073312;28;20048;-21
2023/04/21 01:02:08;;;;;;;25.05;18.00;;;7.60;99.90;;;;;;5058604;28;20479;-21
2023/04/21 01:04:38;;;;;;;29.23;17.83;;;7.50;99.90;;;;;;5076997;28;20117;-21
2023/04/21 01:07:06;;;;;;;31.42;18.25;;;7.50;99.90;;;;;;5059057;28;20536;-21
2023/04/21 01:09:33;;;;;;;24.30;17.38;;;7.40;99.90;;;;;;5058859;28;20055;-21
2023/04/21 01:12:11;;;;;;;33.30;18.85;;;7.40;99.90;;;;;;5059121;28;20055;-21
2023/04/21 01:14:38;;;;;;;34.72;18.88;;;7.40;99.90;;;;;;5076527;28;20055;-21
2023/04/21 01:17:04;;;;;;;30.30;18.88;;;7.40;99.90;;;;;;5076435;28;20049;-21
2023/04/21 01:19:39;;;;;;;31.85;17.90;;;7.40;99.90;;;;;;5076486;28;20044;-21
2023/04/21 01:22:09;;;;;;;34.80;18.65;;;7.40;99.90;;;;;;5076448;28;20509;-21
2023/04/21 01:24:44;;;;;;;26.08;17.50;;;7.40;99.90;;;;;;5042980;28;20056;-21
2023/04/21 01:27:15;;;;;;;26.40;18.52;;;7.40;99.90;;;;;;5058964;28;20044;-21
2023/04/21 01:29:42;;;;;;;27.17;18.02;;;7.30;99.90;;;;;;5076494;28;20048;-21
2023/04/21 01:32:17;;;;;;;23.80;16.45;;;7.40;99.90;;;;;;5076520;28;20082;-21
2023/04/21 01:34:45;;;;;;;30.55;19.98;;;7.40;99.90;;;;;;5076167;28;20540;-21
2023/04/21 01:37:12;;;;;;;29.02;18.63;;;7.40;99.90;;;;;;5076453;28;20109;-21
2023/04/21 01:39:40;;;;;;;27.50;17.15;;;7.40;99.90;;;;;;5076059;28;20040;-21
2023/04/21 01:42:06;;;;;;;28.33;18.63;;;7.40;99.90;;;;;;5076062;28;20091;-21
2023/04/21 01:44:32;;;;;;;27.35;17.75;;;7.40;99.90;;;;;;5075609;28;20057;-20
2023/04/21 01:46:58;;;;;;;30.33;19.02;;;7.40;99.90;;;;;;5041407;28;20049;-21
2023/04/21 01:49:23;;;;;;;28.90;18.35;;;7.40;99.90;;;;;;5075848;28;20059;-21
2023/04/21 01:51:49;;;;;;;25.13;16.52;;;7.30;99.90;;;;;;5041646;28;20069;-21
2023/04/21 01:54:15;;;;;;;32.03;19.85;;;7.30;99.90;;;;;;5075837;28;20060;-21
2023/04/21 01:56:41;;;;;;;29.92;18.95;;;7.30;99.90;;;;;;5075843;28;20444;-21
2023/04/21 01:59:06;;;;;;;30.17;19.35;;;7.30;99.90;;;;;;5058630;28;20044;-21
2023/04/21 02:01:32;;;;;;;32.35;19.35;;;7.20;99.90;;;;;;5075714;28;20084;-21
2023/04/21 02:03:58;;;;;;;30.40;18.33;;;7.20;99.90;;;;;;5076495;28;20076;-21
2023/04/21 02:06:23;;;;;;;35.40;19.67;;;7.20;99.90;;;;;;5057711;28;20052;-21
2023/04/21 02:08:49;;;;;;;33.08;19.80;;;7.20;99.90;;;;;;5075524;28;20147;-21
2023/04/21 02:11:15;;;;;;;25.75;18.73;;;7.20;99.90;;;;;;5058352;28;20166;-21
2023/04/21 02:13:41;;;;;;;28.58;20.13;;;7.10;99.90;;;;;;5075976;28;20088;-21
2023/04/21 02:16:06;;;;;;;28.20;17.67;;;7.10;99.90;;;;;;5075454;28;20047;-21
2023/04/21 02:18:33;;;;;;;30.15;18.73;;;7.10;99.90;;;;;;5075366;28;20394;-21
2023/04/21 02:20:59;;;;;;;27.63;19.63;;;7.10;99.90;;;;;;5075341;28;20055;-21
2023/04/21 02:23:24;;;;;;;33.10;20.02;;;7.10;99.90;;;;;;5075834;28;20052;-21
2023/04/21 02:25:50;;;;;;;30.13;19.30;;;7.10;99.90;;;;;;5057992;28;20433;-21
2023/04/21 02:28:16;;;;;;;27.83;18.60;;;7.00;99.90;;;;;;5057328;28;20044;-21
2023/04/21 02:30:41;;;;;;;34.85;19.95;;;7.10;99.90;;;;;;5074666;28;20082;-21
2023/04/21 02:33:07;;;;;;;31.52;19.02;;;7.10;99.90;;;;;;5040547;28;20055;-21
2023/04/21 02:35:33;;;;;;;27.75;18.38;;;7.20;99.90;;;;;;5041168;28;20052;-21
2023/04/21 02:37:59;;;;;;;31.45;19.65;;;7.10;99.90;;;;;;5074973;28;20478;-21
2023/04/21 02:40:25;;;;;;;27.48;17.35;;;7.20;99.90;;;;;;5074910;28;20123;-21
2023/04/21 02:42:50;;;;;;;31.20;19.95;;;7.10;99.90;;;;;;5058077;28;20045;-21
2023/04/21 02:45:16;;;;;;;31.85;19.80;;;7.10;99.90;;;;;;5075430;28;20383;-21
2023/04/21 02:47:42;;;;;;;38.60;21.88;;;7.10;99.90;;;;;;5056941;28;20044;-21
2023/04/21 02:50:08;;;;;;;30.50;20.92;;;7.20;99.90;;;;;;5074651;28;20091;-21
2023/04/21 02:52:36;;;;;;;30.38;20.08;;;7.10;99.90;;;;;;5040460;28;20052;-21
2023/04/21 02:55:03;;;;;;;30.33;20.77;;;7.10;99.90;;;;;;5074960;28;20135;-21
2023/04/21 02:57:28;;;;;;;34.17;20.63;;;7.10;99.90;;;;;;5074249;28;20406;-21
2023/04/21 02:59:54;;;;;;;28.23;21.42;;;7.10;99.90;;;;;;5056633;28;20049;-21
2023/04/21 03:02:20;;;;;;;32.15;21.05;;;7.10;99.90;;;;;;5074938;28;20123;-21
2023/04/21 03:04:46;;;;;;;35.55;21.73;;;7.10;99.90;;;;;;5023652;28;20375;-21
2023/04/21 03:07:12;;;;;;;34.63;22.08;;;7.00;99.90;;;;;;5074716;28;20052;-21
2023/04/21 03:09:39;;;;;;;34.88;22.90;;;7.00;99.90;;;;;;5056795;28;20045;-21
2023/04/21 03:12:05;;;;;;;33.10;22.40;;;6.90;99.90;;;;;;5074657;28;20109;-22
2023/04/21 03:14:31;;;;;;;35.20;21.95;;;7.00;99.90;;;;;;5074242;28;20044;-21
2023/04/21 03:16:56;;;;;;;35.65;21.90;;;6.90;99.90;;;;;;5074822;28;20056;-21
2023/04/21 03:19:22;;;;;;;36.85;22.63;;;6.90;99.90;;;;;;5074432;28;20127;-21
2023/04/21 03:21:48;;;;;;;28.35;19.58;;;6.90;99.90;;;;;;5056512;28;20044;-21
2023/04/21 03:24:14;;;;;;;28.55;20.23;;;6.90;99.90;;;;;;5055655;28;20044;-21
2023/04/21 03:26:40;;;;;;;30.45;22.00;;;6.90;99.90;;;;;;5074336;28;20055;-21
2023/04/21 03:29:06;;;;;;;33.70;21.10;;;6.90;99.90;;;;;;5073868;28;20048;-21
2023/04/21 03:31:32;;;;;;;33.92;21.83;;;6.90;99.90;;;;;;5056329;28;20044;-21
2023/04/21 03:33:58;;;;;;;33.55;20.83;;;6.90;99.90;;;;;;5073962;28;20539;-21
2023/04/21 03:36:23;;;;;;;31.05;19.73;;;6.90;99.90;;;;;;5074743;28;20067;-21
2023/04/21 03:38:49;;;;;;;31.58;20.42;;;6.90;99.90;;;;;;5074426;28;20051;-21
2023/04/21 03:41:15;;;;;;;34.70;19.50;;;6.90;99.90;;;;;;5039299;28;20052;-22
2023/04/21 03:43:41;;;;;;;32.28;19.42;;;6.80;99.90;;;;;;5006545;28;20066;-21
2023/04/21 03:46:06;;;;;;;27.13;18.75;;;6.70;99.90;;;;;;5074324;28;20044;-21
2023/04/21 03:48:32;;;;;;;33.28;18.35;;;6.80;99.90;;;;;;5074236;28;20125;-21
2023/04/21 03:50:58;;;;;;;31.42;20.48;;;6.70;99.90;;;;;;5073778;28;20055;-21
2023/04/21 03:53:23;;;;;;;31.02;18.25;;;6.70;99.90;;;;;;5074345;28;20098;-21
2023/04/21 03:55:49;;;;;;;26.73;19.13;;;6.70;99.90;;;;;;5073732;28;20090;-21
2023/04/21 03:58:15;;;;;;;31.83;18.05;;;6.70;99.90;;;;;;5073680;28;20569;-21
2023/04/21 04:00:41;;;;;;;26.33;17.90;;;6.70;99.90;;;;;;5055763;28;20088;-21
2023/04/21 04:03:07;;;;;;;28.25;18.48;;;6.60;99.90;;;;;;5055792;28;20127;-21
2023/04/21 04:05:34;;;;;;;28.75;18.48;;;6.70;99.90;;;;;;5055904;28;20127;-21
2023/04/21 04:08:00;;;;;;;23.73;17.13;;;6.60;99.90;;;;;;5055720;28;20379;-21
2023/04/21 04:10:26;;;;;;;28.75;17.65;;;6.60;99.90;;;;;;5074009;28;20052;-21
2023/04/21 04:12:54;;;;;;;30.13;17.83;;;6.60;99.90;;;;;;5055693;28;20048;-21
2023/04/21 04:15:19;;;;;;;34.28;18.00;;;6.60;99.90;;;;;;5073462;28;20102;-25
2023/04/21 04:17:45;;;;;;;28.15;17.85;;;6.60;99.90;;;;;;5055529;28;20044;-21
2023/04/21 04:20:11;;;;;;;30.50;17.08;;;6.60;99.90;;;;;;5055898;28;20037;-21
2023/04/21 04:22:37;;;;;;;29.67;16.95;;;6.50;99.90;;;;;;5073481;28;20502;-21
2023/04/21 04:25:04;;;;;;;25.48;17.25;;;6.60;99.90;;;;;;5073383;28;20069;-21
2023/04/21 04:27:30;;;;;;;30.33;17.65;;;6.60;99.90;;;;;;5073344;28;20052;-21
2023/04/21 04:29:56;;;;;;;25.83;16.73;;;6.70;99.90;;;;;;5055656;28;20056;-21
2023/04/21 04:32:22;;;;;;;27.42;16.92;;;6.70;99.90;;;;;;5038898;28;20040;-21
2023/04/21 04:34:48;;;;;;;30.13;17.38;;;6.60;99.90;;;;;;5055956;28;20136;-21
2023/04/21 04:37:13;;;;;;;28.67;17.27;;;6.60;99.90;;;;;;5076657;28;20528;-22
2023/04/21 04:39:39;;;;;;;27.33;16.77;;;6.60;99.90;;;;;;5077222;28;20047;-21
2023/04/21 04:42:08;;;;;;;27.45;16.70;;;6.70;99.90;;;;;;5077722;28;20049;-21
2023/04/21 04:44:34;;;;;;;28.70;16.63;;;6.70;99.90;;;;;;5076740;28;20095;-21
2023/04/21 04:47:00;;;;;;;30.08;18.35;;;6.70;99.90;;;;;;5059241;28;20049;-21
2023/04/21 04:49:26;;;;;;;29.83;17.20;;;6.80;99.90;;;;;;5077007;28;20127;-21
2023/04/21 04:51:52;;;;;;;27.33;15.57;;;6.80;99.90;;;;;;5077031;28;20099;-22
2023/04/21 04:54:17;;;;;;;25.98;17.13;;;6.80;99.90;;;;;;5026279;28;20098;-21
2023/04/21 04:56:43;;;;;;;31.35;17.23;;;6.80;99.90;;;;;;5077494;28;20056;-21
2023/04/21 04:59:09;;;;;;;27.55;16.98;;;6.80;99.90;;;;;;5077431;28;20493;-21
2023/04/21 05:01:36;;;;;;;28.00;16.10;;;6.80;99.90;;;;;;5059133;28;20045;-21
2023/04/21 05:04:03;;;;;;;26.23;15.40;;;6.90;99.90;;;;;;5059247;28;20135;-22
2023/04/21 05:06:29;;;;;;;26.17;15.50;;;6.90;99.90;;;;;;5042478;28;20045;-21
2023/04/21 05:08:55;;;;;;;41.35;16.42;;;7.00;99.90;;;;;;5076687;28;20101;-22
2023/04/21 05:11:21;;;;;;;25.65;15.90;;;7.00;99.90;;;;;;5076727;28;20052;-21
2023/04/21 05:13:47;;;;;;;21.95;15.50;;;7.10;99.90;;;;;;5076651;28;20159;-21
2023/04/21 05:16:13;;;;;;;27.70;16.25;;;7.10;99.90;;;;;;5076619;28;20201;-21
2023/04/21 05:18:39;;;;;;;20.65;14.32;;;7.10;99.90;;;;;;5077343;28;20548;-21
2023/04/21 05:21:05;;;;;;;25.10;14.65;;;7.20;99.90;;;;;;5058844;28;20049;-22
2023/04/21 05:23:31;;;;;;;24.42;15.10;;;7.40;99.90;;;;;;5076447;28;20052;-21
2023/04/21 05:25:56;;;;;;;25.35;14.95;;;7.40;99.90;;;;;;5076094;28;20088;-21
2023/04/21 05:28:22;;;;;;;23.15;13.90;;;7.40;99.90;;;;;;5058661;28;20045;-21
2023/04/21 05:30:48;;;;;;;21.13;13.32;;;7.50;99.90;;;;;;5076151;28;20132;-21
2023/04/21 05:33:16;;;;;;;22.73;14.50;;;7.60;99.90;;;;;;5076278;28;20054;-21
2023/04/21 05:35:42;;;;;;;18.60;12.70;;;7.60;99.90;;;;;;5076151;28;20041;-21
2023/04/21 05:38:07;;;;;;;25.02;13.73;;;7.70;99.90;;;;;;5076184;28;20552;-22
2023/04/21 05:40:33;;;;;;;21.88;12.23;;;7.80;99.90;;;;;;5041766;28;20495;-22
2023/04/21 05:42:59;;;;;;;18.98;12.10;;;7.90;99.90;;;;;;5076103;28;20044;-22
2023/04/21 05:45:25;;;;;;;20.40;12.70;;;8.00;99.90;;;;;;5076044;28;20060;-22
2023/04/21 05:47:50;;;;;;;20.90;12.48;;;8.00;99.90;;;;;;5057523;28;20057;-21
2023/04/21 05:50:16;;;;;;;21.13;12.05;;;8.20;99.90;;;;;;5075464;28;20084;-22
2023/04/21 05:52:42;;;;;;;20.40;12.45;;;8.30;99.90;;;;;;5075801;28;20059;-21
2023/04/21 05:55:07;;;;;;;23.98;12.15;;;8.40;99.90;;;;;;5075832;28;20399;-22
2023/04/21 05:57:33;;;;;;;21.23;10.75;;;8.50;99.90;;;;;;5075699;28;20093;-22
2023/04/21 05:59:59;;;;;;;20.83;11.18;;;8.60;99.90;;;;;;5075624;28;20125;-22
2023/04/21 06:02:24;;;;;;;18.45;10.35;;;8.70;99.90;;;;;;5058335;28;20047;-22
2023/04/21 06:04:50;;;;;;;22.98;10.82;;;8.80;99.90;;;;;;5057407;28;20494;-22
2023/04/21 06:07:17;;;;;;;21.00;10.80;;;8.80;99.90;;;;;;5075492;28;20054;-22
2023/04/21 06:09:42;;;;;;;16.40;9.75;;;8.90;99.90;;;;;;5040984;28;20037;-22
2023/04/21 06:12:08;;;;;;;19.40;10.25;;;9.00;99.90;;;;;;5057353;28;20070;-22
2023/04/21 06:14:34;;;;;;;14.52;10.48;;;9.10;99.90;;;;;;5075335;28;20052;-22
2023/04/21 06:16:59;;;;;;;20.60;10.57;;;9.10;81.60;;;;;;5075416;28;20364;-22
2023/04/21 06:19:25;;;;;;;18.02;10.38;;;9.20;59.30;;;;;;5057672;28;20056;-22
2023/04/21 06:21:51;;;;;;;18.92;9.88;;;9.30;29.60;;;;;;5075668;28;20623;-22
2023/04/21 06:24:23;;;;;;;17.50;8.80;;;9.40;34.90;;;;;;5075119;28;20049;-22
2023/04/21 06:26:51;;;;;;;21.00;10.23;;;9.40;1.00;;;;;;5075767;28;20051;-22
2023/04/21 06:29:17;;;;;;;22.40;9.75;;;9.50;1.00;;;;;;5075643;28;20047;-22
2023/04/21 06:31:42;;;;;;;18.23;9.68;;;9.60;1.00;;;;;;5057277;28;20044;-22
2023/04/21 06:34:08;;;;;;;18.95;9.95;;;9.70;1.00;;;;;;5075520;28;20123;-21
2023/04/21 06:36:34;;;;;;;18.98;9.25;;;9.70;99.90;;;;;;5057726;28;20359;-22
2023/04/21 06:39:00;;;;;;;20.25;10.13;;;9.80;1.00;;;;;;5075213;28;20068;-22
2023/04/21 06:41:25;;;;;;;16.40;8.82;;;9.90;1.00;;;;;;5074906;28;20067;-22
2023/04/21 06:43:51;;;;;;;18.73;8.57;;;9.90;1.00;;;;;;5074887;28;20501;-22
2023/04/21 06:46:17;;;;;;;15.90;8.70;;;10.00;1.00;;;;;;5074658;28;20096;-22
2023/04/21 06:48:42;;;;;;;17.00;9.70;;;10.00;1.00;;;;;;5075012;28;20056;-22
2023/04/21 06:51:08;;;;;;;18.08;9.10;;;10.20;1.00;;;;;;5075353;28;20052;-22
2023/04/21 06:53:34;;;;;;;20.17;9.65;;;10.20;99.90;;;;;;5075260;28;20044;-22
2023/04/21 06:56:00;;;;;;;15.27;8.15;;;10.30;99.90;;;;;;5056929;28;20132;-22
2023/04/21 06:58:26;;;;;;;16.95;9.20;;;10.40;99.90;;;;;;5023836;28;20163;-22
2023/04/21 07:00:51;;;;;;;16.52;9.32;;;10.50;99.90;;;;;;5056746;28;20057;-22
2023/04/21 07:03:17;;;;;;;14.90;8.27;;;10.50;99.90;;;;;;5074534;28;20483;-22
2023/04/21 07:05:43;;;;;;;20.73;9.55;;;10.60;99.90;;;;;;5074699;28;20417;-22
2023/04/21 07:08:08;;;;;;;15.15;8.85;;;10.70;99.90;;;;;;5074389;28;20105;-22
2023/04/21 07:10:34;;;;;;;16.15;8.90;;;10.80;99.90;;;;;;5074849;28;20043;-22
2023/04/21 07:13:00;;;;;;;18.95;10.27;;;10.80;99.90;;;;;;5040161;28;20048;-22
2023/04/21 07:15:25;;;;;;;17.75;8.18;;;10.90;99.90;;;;;;5040079;28;20045;-22
2023/04/21 07:17:51;;;;;;;15.20;8.35;;;11.00;99.90;;;;;;5056131;28;20074;-22
2023/04/21 07:20:17;;;;;;;15.60;7.97;;;11.10;99.90;;;;;;5056474;28;20049;-22
2023/04/21 07:22:43;;;;;;;15.07;7.97;;;11.20;99.90;;;;;;5056426;28;20206;-22
2023/04/21 07:25:09;;;;;;;16.48;8.30;;;11.20;99.90;;;;;;5074118;28;20051;-22
2023/04/21 07:27:36;;;;;;;12.85;7.57;;;11.30;50.40;;;;;;5074091;28;20097;-22
2023/04/21 07:30:03;;;;;;;15.55;7.90;;;11.40;75.20;;;;;;5056088;28;20529;-22
2023/04/21 07:32:28;;;;;;;27.00;7.95;;;11.50;99.90;;;;;;5074654;28;20059;-22
2023/04/21 07:34:54;;;;;;;15.05;8.18;;;11.50;33.30;;;;;;5074531;28;20131;-22
2023/04/21 07:37:20;;;;;;;15.45;8.82;;;11.60;1.00;;;;;;5056356;28;20087;-23
2023/04/21 07:39:46;;;;;;;17.80;8.27;;;11.70;1.00;;;;;;5074483;28;20123;-22
2023/04/21 07:42:12;;;;;;;18.50;8.43;;;11.70;1.00;;;;;;5074720;28;20044;-23
2023/04/21 07:44:38;;;;;;;12.75;8.70;;;11.80;1.00;;;;;;5056093;28;20082;-22
2023/04/21 07:47:04;;;;;;;17.13;9.02;;;11.90;1.00;;;;;;5057002;28;20458;-22
2023/04/21 07:49:30;;;;;;;17.70;7.90;;;11.90;1.00;;;;;;5056023;28;20044;-23
2023/04/21 07:51:56;;;;;;;12.75;7.95;;;12.00;1.00;;;;;;5073780;28;20497;-23
2023/04/21 07:54:22;;;;;;;18.63;8.20;;;12.10;1.00;;;;;;5073773;28;20087;-23
2023/04/21 07:56:47;;;;;;;15.50;8.45;;;12.20;1.00;;;;;;5056544;28;20055;-23
2023/04/21 07:59:13;;;;;;;16.27;8.73;;;12.30;1.00;;;;;;5074213;28;20127;-23
2023/04/21 08:01:39;;;;;;;19.25;9.68;;;12.30;1.00;;;;;;5056242;28;20454;-23
2023/04/21 08:04:05;;;;;;;19.40;8.68;;;12.30;1.00;;;;;;5073624;28;20044;-22
2023/04/21 08:06:32;;;;;;;16.77;7.60;;;12.40;1.00;;;;;;5073630;28;20509;-23
2023/04/21 08:08:58;;;;;;;16.17;8.40;;;12.50;99.90;;;;;;5073354;28;20044;-23
2023/04/21 08:11:24;;;;;;;16.60;8.23;;;12.60;1.00;;;;;;5022933;28;20509;-23
2023/04/21 08:13:51;;;;;;;14.02;7.63;;;12.70;99.90;;;;;;5039972;28;20053;-23
2023/04/21 08:16:16;;;;;;;14.93;7.38;;;12.80;99.90;;;;;;5055679;28;20080;-23
2023/04/21 08:18:42;;;;;;;13.00;7.88;;;12.90;99.90;;;;;;5073996;28;20076;-23
2023/04/21 08:21:08;;;;;;;16.98;8.10;;;13.00;99.90;;;;;;5056023;28;20044;-23
2023/04/21 08:23:33;;;;;;;14.77;8.40;;;13.10;99.90;;;;;;5055622;28;20037;-23
2023/04/21 08:26:01;;;;;;;15.48;7.75;;;13.20;99.90;;;;;;5073443;28;20047;-24
2023/04/21 08:28:26;;;;;;;16.92;7.78;;;13.30;99.90;;;;;;5055506;28;20048;-23
2023/04/21 08:30:52;;;;;;;16.95;7.72;;;13.30;42.50;;;;;;5055327;28;20049;-23
2023/04/21 08:33:18;;;;;;;15.57;8.50;;;13.40;10.90;;;;;;5074172;28;20173;-23
2023/04/21 08:35:44;;;;;;;14.77;7.43;;;13.50;99.90;;;;;;5073343;28;20482;-23
2023/04/21 08:38:09;;;;;;;18.98;8.68;;;13.50;1.00;;;;;;5055445;28;20094;-23
2023/04/21 08:40:37;;;;;;;16.67;8.50;;;13.60;34.80;;;;;;5073230;28;20091;-23
2023/04/21 08:43:07;;;;;;;16.67;7.90;;;13.80;73.10;;;;;;5073251;28;20127;-23
2023/04/21 08:45:34;;;;;;;13.88;8.55;;;14.00;1.00;;;;;;5073293;28;20052;-23
2023/04/21 08:48:03;;;;;;;12.75;7.28;;;14.10;1.00;;;;;;5055486;28;20173;-23
2023/04/21 08:50:30;;;;;;;11.32;7.25;;;14.10;1.00;;;;;;5073388;28;20047;-23
2023/04/21 08:52:57;;;;;;;12.80;7.43;;;14.20;99.90;;;;;;5073176;28;20078;-23
2023/04/21 08:55:29;;;;;;;12.52;7.05;;;14.30;99.90;;;;;;5038592;28;20057;-23
2023/04/21 08:57:55;;;;;;;12.40;6.65;;;14.50;99.90;;;;;;5055686;28;20044;-23
2023/04/21 09:00:21;;;;;;;14.38;7.22;;;14.60;1.00;;;;;;5073148;28;20041;-23
2023/04/21 09:02:59;;;;;;;21.42;6.95;;;15.10;99.90;;;;;;5073593;28;20044;-24
2023/04/21 09:05:27;;;;;;;16.25;7.90;;;15.80;99.90;;;;;;5073051;28;20041;-24
2023/04/21 09:08:08;;;;;;;15.18;8.00;;;16.90;99.90;;;;;;5072977;28;20482;-23
2023/04/21 09:10:45;;;;;;;14.18;7.30;;;17.40;99.90;;;;;;5070926;28;20047;-23
2023/04/21 09:13:11;;;;;;;11.65;7.00;;;18.00;1.00;;;;;;5062396;28;20102;-24
2023/04/21 09:15:41;;;;;;;14.27;7.28;;;18.40;1.00;;;;;;5072940;28;20147;-24
2023/04/21 09:18:16;;;;;;;14.13;6.32;;;18.80;99.90;;;;;;5062496;28;20044;-24
2023/04/21 09:20:44;;;;;;;16.52;7.75;;;19.00;1.00;;;;;;5072928;28;20128;-24
2023/04/21 09:23:10;;;;;;;16.35;6.93;;;19.10;99.90;;;;;;5058596;28;20101;-24
2023/04/21 09:25:41;;;;;;;9.90;6.32;;;19.50;1.00;;;;;;5076222;28;20080;-24
2023/04/21 09:28:12;;;;;;;16.98;6.90;;;19.70;1.00;;;;;;5076425;28;20052;-24
2023/04/21 09:30:39;;;;;;;15.80;7.25;;;19.80;99.90;;;;;;5076008;28;20047;-24
2023/04/21 09:33:05;;;;;;;11.55;6.18;;;20.00;1.00;;;;;;5056272;28;20402;-25
2023/04/21 09:35:36;;;;;;;11.55;6.38;;;20.10;99.90;;;;;;5056187;28;20040;-25
2023/04/21 09:38:02;;;;;;;17.65;8.00;;;20.30;99.90;;;;;;5056065;28;20056;-25
2023/04/21 09:40:29;;;;;;;13.95;7.32;;;20.30;99.90;;;;;;5056372;28;20045;-25
2023/04/21 09:42:55;;;;;;;11.13;6.78;;;20.40;99.90;;;;;;5055939;28;20075;-26
2023/04/21 09:45:28;;;;;;;13.25;6.80;;;20.50;99.90;;;;;;5056313;28;20060;-25
2023/04/21 09:47:55;;;;;;;;;;;20.90;51.40;;;;;;5064739;28;20085;-26
2023/04/21 09:50:22;;;;;;;14.82;6.80;;;21.30;1.00;;;;;;5075889;28;19994;-25
2023/04/21 09:52:50;;;;;;;13.95;6.70;;;21.50;99.90;;;;;;5075850;28;20413;-25
2023/04/21 09:55:21;;;;;;;11.85;6.35;;;21.30;1.00;;;;;;5075674;28;20426;-25
2023/04/21 09:57:48;;;;;;;11.32;6.10;;;21.30;1.00;;;;;;5054206;28;20048;-24
2023/04/21 10:00:16;;;;;;;14.93;6.72;;;21.30;1.00;;;;;;5055578;28;20062;-24
2023/04/21 10:02:46;;;;;;;15.13;6.05;;;21.10;1.00;;;;;;5075434;28;20417;-25
2023/04/21 10:05:12;;;;;;;12.57;6.32;;;21.20;1.00;;;;;;5075900;28;20052;-25
2023/04/21 10:07:38;;;;;;;14.00;6.32;;;21.00;1.00;;;;;;5075250;28;20044;-26
2023/04/21 10:10:07;;;;;;;13.65;6.35;;;21.10;1.00;;;;;;5075273;28;20036;-25
2023/04/21 10:12:34;;;;;;;16.27;7.03;;;21.10;1.00;;;;;;5058411;28;20080;-25
2023/04/21 10:15:04;;;;;;;13.20;6.68;;;21.10;1.00;;;;;;5079558;28;20163;-24
2023/04/21 10:17:35;;;;;;;13.90;5.97;;;21.30;1.00;;;;;;5074281;28;20418;-25
2023/04/21 10:20:06;;;;;;;13.37;6.63;;;21.30;99.90;;;;;;5075548;28;20049;-25
2023/04/21 10:22:33;;;;;;;19.13;6.65;;;21.60;99.90;;;;;;5076106;28;20135;-25
2023/04/21 10:25:01;;;;;;;13.50;6.50;;;21.70;99.90;;;;;;5075352;28;20048;-25
2023/04/21 10:27:41;;;;;;;12.10;6.45;;;21.60;99.90;;;;;;5055954;28;20056;-24
2023/04/21 10:30:24;;;;;;;11.07;6.05;;;21.80;99.90;;;;;;5075157;28;20117;-26
2023/04/21 10:33:02;;;;;;;14.85;6.60;;;21.90;99.90;;;;;;5074813;28;20494;-25
2023/04/21 10:35:58;;;;;;;11.88;6.10;;;21.90;99.90;;;;;;5073846;28;20072;-25
2023/04/21 10:38:34;;;;;;;13.45;5.90;;;22.10;99.90;;;;;;5073421;28;20054;-26
2023/04/21 10:41:39;;;;;;;12.45;5.80;;;22.60;99.90;;;;;;5073612;28;20086;-25
2023/04/21 10:44:15;;;;;;;10.23;5.70;;;23.00;99.90;;;;;;5073077;28;20514;-25
2023/04/21 10:46:52;;;;;;;16.05;6.63;;;23.00;99.90;;;;;;5075423;28;20056;-25
2023/04/21 10:49:26;;;;;;;11.65;6.00;;;23.10;99.90;;;;;;5077143;28;20044;-25
2023/04/21 10:52:07;;;;;;;11.88;5.97;;;23.10;99.90;;;;;;5077182;28;20088;-26
2023/04/21 10:54:44;;;;;;;11.45;5.95;;;22.90;99.90;;;;;;5095018;28;20084;-26
2023/04/21 10:57:12;;;;;;;13.50;5.85;;;22.90;99.90;;;;;;5070941;28;20093;-25
2023/04/21 10:59:38;;;;;;;13.18;5.82;;;22.80;99.90;;;;;;5070242;28;20045;-26
2023/04/21 11:02:10;;;;;;;13.30;6.00;;;22.80;99.90;;;;;;5054465;28;20048;-26
2023/04/21 11:04:39;;;;;;;13.40;6.05;;;23.20;99.90;;;;;;5070390;28;20047;-26
2023/04/21 11:07:08;;;;;;;11.38;5.75;;;23.40;99.90;;;;;;5056599;28;20044;-25
2023/04/21 11:09:35;;;;;;;16.50;6.00;;;23.40;99.90;;;;;;5073127;28;20111;-26
2023/04/21 11:12:14;;;;;;;9.25;5.43;;;23.60;99.90;;;;;;5056405;28;20044;-25
2023/04/21 11:14:42;;;;;;;13.18;6.30;;;23.20;99.90;;;;;;5074077;28;20123;-25
2023/04/21 11:17:25;;;;;;;18.10;6.22;;;23.00;99.90;;;;;;5070495;28;20048;-26
2023/04/21 11:19:53;;;;;;;11.43;5.35;;;23.10;99.90;;;;;;5070519;28;20120;-24
2023/04/21 11:22:21;;;;;;;20.92;5.80;;;22.60;99.90;;;;;;5070006;28;20048;-26
2023/04/21 11:24:49;;;;;;;9.55;4.68;;;22.30;99.90;;;;;;5053890;28;20048;-26
2023/04/21 11:27:16;;;;;;;12.25;5.10;;;22.00;99.90;;;;;;5079081;28;20127;-25
2023/04/21 11:29:47;;;;;;;9.65;4.68;;;22.40;99.90;;;;;;5071196;28;20083;-24
2023/04/21 11:32:14;;;;;;;10.38;4.53;;;23.00;99.90;;;;;;5039491;28;20116;-25
2023/04/21 11:34:40;;;;;;;12.70;4.72;;;23.20;99.90;;;;;;5073545;28;20115;-26
2023/04/21 11:37:07;;;;;;;14.80;5.18;;;22.80;99.90;;;;;;5073564;28;20505;-25
2023/04/21 11:39:33;;;;;;;14.35;4.93;;;22.60;99.90;;;;;;5072177;28;20105;-26
2023/04/21 11:41:59;;;;;;;10.75;4.82;;;22.70;99.90;;;;;;5073630;28;20040;-25
2023/04/21 11:44:37;;;;;;;10.85;4.15;;;22.80;99.90;;;;;;5055146;28;20059;-24
2023/04/21 11:47:16;;;;;;;7.97;4.40;;;22.80;99.90;;;;;;5073555;28;20052;-25
2023/04/21 11:49:45;;;;;;;8.85;4.22;;;23.00;99.90;;;;;;5054962;28;20044;-26
2023/04/21 11:52:21;;;;;;;16.17;4.38;;;22.90;99.90;;;;;;5055417;28;20525;-25
2023/04/21 11:54:47;;;;;;;6.25;3.90;;;23.30;99.90;;;;;;5073712;28;20041;-26
2023/04/21 11:57:18;;;;;;;14.00;3.85;;;23.70;99.90;;;;;;5073616;28;20508;-26
2023/04/21 11:59:45;;;;;;;7.50;3.97;;;23.30;99.90;;;;;;5072669;28;20146;-26
2023/04/21 12:02:20;;;;;;;10.13;3.55;;;22.60;75.30;;;;;;5068675;28;20110;-25
2023/04/21 12:05:04;;;;;;;10.75;4.40;;;22.10;36.70;;;;;;5066030;28;20051;-24
2023/04/21 12:07:35;;;;;;;9.00;4.07;;;21.70;18.90;;;;;;5050255;28;20047;-25
2023/04/21 12:10:07;;;;;;;7.35;4.20;;;21.60;14.30;;;;;;5073422;28;20090;-26
2023/04/21 12:12:40;;;;;;;10.90;4.00;;;21.80;33.20;;;;;;5055597;28;20076;-25
2023/04/21 12:15:06;;;;;;;;;;;21.70;39.20;;;;;;5067942;28;20418;-25
2023/04/21 12:17:44;;;;;;;9.50;3.97;;;22.00;77.20;;;;;;5073385;28;19943;-25
2023/04/21 12:20:11;;;;;;;10.40;3.60;;;22.30;49.60;;;;;;5054165;28;20048;-26
2023/04/21 12:22:37;;;;;;;12.75;3.72;;;22.30;66.10;;;;;;5086806;28;20052;-27
2023/04/21 12:25:04;;;;;;;11.88;4.28;;;22.20;47.70;;;;;;5078615;28;20044;-26
2023/04/21 12:27:30;;;;;;;11.32;3.95;;;21.90;35.70;;;;;;5068795;28;20087;-26
2023/04/21 12:29:56;;;;;;;9.13;3.75;;;21.60;23.60;;;;;;5054621;28;20114;-26
2023/04/21 12:32:23;;;;;;;5.97;3.28;;;21.60;21.30;;;;;;5054345;28;20052;-25
2023/04/21 12:34:49;;;;;;;9.95;3.55;;;22.20;56.70;;;;;;5070974;28;20727;-25
2023/04/21 12:37:15;;;;;;;10.98;3.63;;;22.60;43.20;;;;;;5049681;28;20608;-26
2023/04/21 12:39:41;;;;;;;6.65;4.30;;;22.90;60.00;;;;;;5054376;28;20063;-25
2023/04/21 12:42:07;;;;;;;12.98;4.90;;;22.40;50.40;;;;;;5071341;28;20133;-26